x

La Have Bank (44150) Wave Buoy

2:00pm - Mon 2nd Mar 2015 All times are AST. -4 hours from GMT.

  • Sig Wave height 9.2ft
  • Peak Period 10s
  • Wind
    31mph, 38mph gusts
  • Sea Temp 47°f
  • Air Temp 38°f
  • Sea Pressure 1005.1mb
  • La Have Bank
  • La Have Bank

More Historic Weather Station data

Upgrade to MSW Pro to gain access to the past 30 days of data for over 8000 Wavebouys and Weather Stations around the globe.

Join Pro

Comparision Forecast

View Surf forecast
   
Mon 03/02 2:00pm 9ft 10s 31 38 mph 1005.1mb 47f 38f
1:00pm 9ft 10s 29 34 mph 1006.1mb 45f 38f
12:00pm 8.5ft 10s 27 34 mph 1007.1mb 44f 39f
11:00am 8.5ft 9s 20 25 mph 1007.8mb 44f 40f
10:00am 8ft 8s 13 16 mph 1008.7mb 44f 40f
9:00am 5.5ft 7s 18 22 mph 1009.5mb 43f 39f
8:00am 3.5ft  -  16 18 mph 1009.7mb 43f 46f
7:00am  -   -  20
mph
- - -
6:00am 2.5ft 8s 20 22 mph 1014.6mb 43f 39f
5:00am 2.5ft 7s 13 18 mph 1017.1mb 44f 38f
4:00am 2.5ft 5s 9 11 mph 1019.5mb 43f 37f
3:00am 2.5ft 4s 4 7 mph 1022.2mb 43f 36f
2:00am 2.5ft 9s 2
mph
1024.2mb 43f 35f
1:00am 2ft 8s 2 4 mph 1026.1mb 43f 35f
12:00am 2ft 8s 7 9 mph 1027.6mb 43f 35f
Sun 03/01 11:00pm 2ft 9s 7 9 mph 1029mb 43f 35f
10:00pm 2ft 8s 7 9 mph 1030.2mb 43f 35f
9:00pm 2ft 8s 7 9 mph 1031.3mb 43f 34f
8:00pm 2ft 10s 4 9 mph 1032.1mb 43f 35f
7:00pm 2.5ft 9s 4 9 mph 1032.9mb 43f 34f
6:00pm 2.5ft 10s 2 7 mph 1033.5mb 43f 34f
5:00pm 2.5ft 9s  -  2 mph 1034.8mb 43f 33f
4:00pm 2.5ft 9s 2 4 mph 1036.3mb 43f 33f
3:00pm 2.5ft 5s 4 7 mph 1037.2mb 43f 34f
2:00pm 2.5ft 5s 4 7 mph 1038mb 42f 33f
1:00pm 2.5ft 10s 2 7 mph 1038.8mb 42f 33f
12:00pm 2.5ft 8s 4 9 mph 1040mb 42f 33f
11:00am 2.5ft 10s 4 7 mph 1040.4mb 42f 33f
10:00am 3ft 8s 2 4 mph 1040.4mb 42f 32f
9:00am 3ft 10s 4 7 mph 1040.3mb 42f 32f
8:00am 3.5ft 10s 11 13 mph 1040.1mb 42f 31f
7:00am 3.5ft 10s 9 16 mph 1040mb 42f 31f
6:00am 3.5ft 10s 11 16 mph 1039.7mb 42f 31f
5:00am 3.5ft 4s 13 18 mph 1039.4mb 42f 30f
4:00am 3.5ft 10s 13 20 mph 1039.3mb 42f 30f
3:00am 3.5ft 10s 16 20 mph 1039.3mb 42f 30f
2:00am 3.5ft 9s 16 20 mph 1039.4mb 42f 30f
1:00am 3.5ft 10s 11 18 mph 1039.2mb 42f 29f
12:00am 3.5ft 10s 9 13 mph 1039.5mb 42f 29f
Sat 02/28 11:00pm 3.5ft 10s 9 13 mph 1039.7mb 42f 29f
10:00pm 3.5ft 11s 9 13 mph 1039.6mb 42f 29f
9:00pm 3.5ft 11s 9 13 mph 1039.4mb 43f 28f
8:00pm 3.5ft 11s 9 16 mph 1039.2mb 43f 28f
7:00pm 4.5ft 11s 11 13 mph 1038.8mb 43f 28f
6:00pm 4.5ft 11s 11 18 mph 1038.5mb 43f 28f
5:00pm 4.5ft 11s 16 20 mph 1038.3mb 43f 28f
4:00pm 4.5ft 11s 16 20 mph 1038.3mb 43f 28f
3:00pm 4.5ft 9s 16 20 mph 1038.4mb 43f 28f
2:00pm 4.5ft 11s 16 22 mph 1038.9mb 42f 28f
1:00pm 5ft 11s 11 18 mph 1039.3mb 42f 28f
12:00pm  -   -  11
mph
- - -
11:00am 4.5ft 10s 13 18 mph 1038.8mb 42f 28f
10:00am 4.5ft 9s 13 18 mph 1038.1mb 42f 29f
9:00am 5.5ft 11s 13 18 mph 1036.9mb 42f 29f
8:00am 5ft 12s 16 22 mph 1035.5mb 41f 28f
7:00am 5.5ft 11s 13 18 mph 1034.9mb 41f 28f
6:00am 5.5ft 11s 16 22 mph 1033.9mb 41f 28f
5:00am 6ft 11s 13 18 mph 1033.1mb 41f 27f
4:00am 6ft 12s 16 20 mph 1031.9mb 41f 28f
3:00am 6ft 11s 16 22 mph 1031.7mb 41f 28f
2:00am 6ft 11s 16 22 mph 1031.6mb 41f 28f
1:00am  -   -  18
mph
1031.3mb - 28f
12:00am 7ft 11s 18 25 mph 1030.7mb 41f 28f
Fri 02/27 11:00pm 8ft 11s 18 22 mph 1030.2mb 41f 28f
10:00pm 8ft 11s 18 22 mph 1029.8mb 41f 27f
9:00pm 8ft 12s 18 25 mph 1029.3mb 41f 28f
8:00pm 7ft 12s 18 22 mph 1028.7mb 41f 27f
7:00pm 7.5ft 11s 18 25 mph 1028mb 41f 27f
6:00pm 7.5ft 9s 16 20 mph 1027.3mb 41f 26f
5:00pm 8ft 11s 13 20 mph 1026.3mb 41f 26f
4:00pm 9ft 10s 13 18 mph 1026.1mb 41f 25f
3:00pm 9ft 10s 16 20 mph 1025.5mb 41f 25f
2:00pm 9ft 11s 18 22 mph 1025mb 41f 25f
1:00pm 10ft 11s 18 25 mph 1024.8mb 41f 26f
12:00pm 10ft 10s 16
mph
1024.3mb 41f 26f
11:00am 10ft 10s 13 20 mph 1023.5mb 41f 26f
10:00am 11ft 13s 13 18 mph 1022.8mb 41f 26f
9:00am 11.5ft 12s 11 18 mph 1021.8mb 41f 26f
8:00am 10ft 11s 13 20 mph 1020.8mb 41f 26f
7:00am 8.5ft 10s 18 25 mph 1019.2mb 41f 26f
6:00am 8ft 11s 18 22 mph 1017.7mb 41f 27f
5:00am 8ft 10s 18 25 mph 1016.4mb 41f 27f
4:00am 8ft 10s 20 25 mph 1015mb 41f 28f
2:00am 8.5ft 10s 20 27 mph 1013.3mb 41f 28f
1:00am 8.5ft 6s 22 29 mph 1011.8mb 43f 30f
12:00am 8.5ft 10s 22 27 mph 1011.2mb 45f 31f
Thu 02/26 11:00pm  -   -  25
mph
1011.2mb - 30f
10:00pm 8.5ft 10s 27 34 mph 1010.9mb 49f 31f
9:00pm 8.5ft 10s 29 36 mph 1010.6mb 50f 31f
8:00pm 8.5ft 10s 31 36 mph 1010.7mb 50f 30f